createdAt,value
2018-03-03T00:00:27.809Z,100622.92
2018-03-03T00:02:56.477Z,100615.09
2018-03-03T00:05:25.013Z,100614.22
2018-03-03T00:07:53.490Z,100621.61
2018-03-03T00:10:23.244Z,100621.18
2018-03-03T00:12:51.818Z,100625.08
2018-03-03T00:15:20.312Z,100625.03
2018-03-03T00:17:56.846Z,100625.95
2018-03-03T00:20:25.333Z,100622.06
2018-03-03T00:22:54.000Z,100619.88
2018-03-03T00:25:23.205Z,100626.84
2018-03-03T00:27:51.645Z,100628.94
2018-03-03T00:30:20.107Z,100621.61
2018-03-03T00:32:48.982Z,100618.55
2018-03-03T00:35:17.414Z,100621.52
2018-03-03T00:37:45.840Z,100618.16
2018-03-03T00:40:15.626Z,100620.34
2018-03-03T00:42:44.053Z,100619.00
2018-03-03T00:45:12.539Z,100624.19
2018-03-03T00:47:41.179Z,100620.72
2018-03-03T00:50:09.939Z,100615.12
2018-03-03T00:52:38.867Z,100620.31
2018-03-03T00:55:07.469Z,100614.27
2018-03-03T00:57:37.367Z,100617.70
2018-03-03T01:00:05.974Z,100618.08
2018-03-03T01:02:34.640Z,100618.58
2018-03-03T01:05:03.191Z,100616.79
2018-03-03T01:07:31.781Z,100612.00
2018-03-03T01:10:00.435Z,100615.50
2018-03-03T01:12:29.070Z,100616.39
2018-03-03T01:14:57.526Z,100609.45
2018-03-03T01:17:26.035Z,100607.73
2018-03-03T01:19:55.302Z,100618.19
2018-03-03T01:22:23.753Z,100608.23
2018-03-03T01:24:52.292Z,100601.75
2018-03-03T01:27:20.773Z,100606.89
2018-03-03T01:29:49.259Z,100613.44
2018-03-03T01:32:18.295Z,100614.32
2018-03-03T01:34:46.821Z,100613.42
2018-03-03T01:37:15.303Z,100599.96
2018-03-03T01:39:43.916Z,100609.13
2018-03-03T01:42:12.432Z,100603.48
2018-03-03T01:44:41.240Z,100609.52
2018-03-03T01:47:09.822Z,100608.64
2018-03-03T01:49:39.540Z,100608.62
2018-03-03T01:52:08.132Z,100600.45
2018-03-03T01:54:36.952Z,100597.01
2018-03-03T01:57:05.842Z,100595.73
2018-03-03T01:59:34.485Z,100596.59
2018-03-03T02:02:03.076Z,100600.07
2018-03-03T02:04:31.556Z,100599.17
2018-03-03T02:07:00.793Z,100604.77
2018-03-03T02:09:29.458Z,100600.47
2018-03-03T02:11:57.954Z,100604.83
2018-03-03T02:14:26.473Z,100603.52
2018-03-03T02:16:54.984Z,100594.84
2018-03-03T02:19:23.426Z,100603.51
2018-03-03T02:21:51.910Z,100603.48
2018-03-03T02:24:20.972Z,100604.33
2018-03-03T02:26:49.431Z,100594.01
2018-03-03T02:29:17.916Z,100598.32
2018-03-03T02:31:46.433Z,100597.45
2018-03-03T02:34:14.979Z,100594.02
2018-03-03T02:36:43.500Z,100594.44
2018-03-03T02:39:11.987Z,100591.84
2018-03-03T02:41:40.465Z,100584.91
2018-03-03T02:44:09.005Z,100592.72
2018-03-03T02:46:37.691Z,100591.88
2018-03-03T02:49:06.680Z,100587.92
2018-03-03T02:51:35.184Z,100587.50
2018-03-03T02:54:03.739Z,100593.99
2018-03-03T02:56:32.231Z,100582.35
2018-03-03T02:59:00.703Z,100589.66
2018-03-03T03:01:29.891Z,100581.44
2018-03-03T03:03:58.376Z,100583.61
2018-03-03T03:06:26.790Z,100593.14
2018-03-03T03:08:55.442Z,100579.75
2018-03-03T03:11:23.894Z,100586.66
2018-03-03T03:13:52.312Z,100587.55
2018-03-03T03:16:20.853Z,100584.94
2018-03-03T03:18:50.405Z,100579.30
2018-03-03T03:21:18.859Z,100586.67
2018-03-03T03:23:47.430Z,100583.22
2018-03-03T03:26:15.873Z,100582.79
2018-03-03T03:28:44.462Z,100589.70
2018-03-03T03:31:13.078Z,100587.52
2018-03-03T03:33:41.521Z,100590.95
2018-03-03T03:36:10.272Z,100589.24
2018-03-03T03:38:39.267Z,100590.91
2018-03-03T03:41:07.814Z,100587.05
2018-03-03T03:43:36.318Z,100583.64
2018-03-03T03:46:04.901Z,100593.57
2018-03-03T03:48:33.423Z,100586.22
2018-03-03T03:51:01.879Z,100582.75
2018-03-03T03:53:30.686Z,100585.81
2018-03-03T03:55:59.153Z,100575.41
2018-03-03T03:58:27.662Z,100574.94
2018-03-03T04:00:56.946Z,100574.08
2018-03-03T04:03:25.381Z,100574.09
2018-03-03T04:05:53.808Z,100574.08
2018-03-03T04:08:22.320Z,100564.55
2018-03-03T04:10:50.789Z,100570.64
2018-03-03T04:13:19.241Z,100568.48
2018-03-03T04:15:49.299Z,100578.00
2018-03-03T04:18:17.750Z,100567.14
2018-03-03T04:20:46.248Z,100558.94
2018-03-03T04:23:15.244Z,100561.11
2018-03-03T04:25:43.695Z,100558.97
2018-03-03T04:28:12.190Z,100556.81
2018-03-03T04:30:40.837Z,100552.52
2018-03-03T04:33:09.420Z,100553.37
2018-03-03T04:35:37.948Z,100544.30
2018-03-03T04:38:06.486Z,100528.30
2018-03-03T04:40:35.048Z,100528.30
2018-03-03T04:43:03.569Z,100537.38
2018-03-03T04:45:32.548Z,100527.42
2018-03-03T04:48:01.026Z,100527.80
2018-03-03T04:50:29.517Z,100525.21
2018-03-03T04:52:58.128Z,100521.33
2018-03-03T04:55:26.618Z,100514.84
2018-03-03T04:57:55.179Z,100520.45
2018-03-03T05:00:30.051Z,100515.70
2018-03-03T05:03:00.153Z,100515.71
2018-03-03T05:05:34.342Z,100510.50
2018-03-03T05:08:08.453Z,100512.70
2018-03-03T05:10:37.241Z,100510.52
2018-03-03T05:13:11.236Z,100510.55
2018-03-03T05:15:45.390Z,100504.06
2018-03-03T05:18:13.900Z,100505.76
2018-03-03T05:24:00.078Z,100504.94
2018-03-03T05:26:34.058Z,100507.12
2018-03-03T05:29:08.097Z,100501.48
2018-03-03T05:34:59.308Z,100513.60
2018-03-03T05:37:33.953Z,100522.27
2018-03-03T05:40:12.355Z,100522.31
2018-03-03T05:42:46.380Z,100520.13
2018-03-03T05:45:20.396Z,100530.05
2018-03-03T05:51:11.923Z,100536.17
2018-03-03T05:53:46.542Z,100538.31
2018-03-03T05:56:17.393Z,100536.61
2018-03-03T06:02:07.901Z,100540.07
2018-03-03T06:08:00.255Z,100557.80
2018-03-03T06:10:46.657Z,100553.92
2018-03-03T06:13:15.113Z,100549.56
2018-03-03T06:15:43.623Z,100547.88
2018-03-03T06:18:13.121Z,100549.62
2018-03-03T06:20:41.602Z,100559.56
2018-03-03T06:23:10.120Z,100558.69
2018-03-03T06:25:38.880Z,100564.30
2018-03-03T06:28:07.358Z,100569.48
2018-03-03T06:30:36.759Z,100574.69
2018-03-03T06:33:05.278Z,100569.08
2018-03-03T06:35:33.756Z,100559.98
2018-03-03T06:38:04.047Z,100549.19
2018-03-03T06:40:33.005Z,100557.84
2018-03-03T06:43:01.453Z,100560.41
2018-03-03T06:45:29.913Z,100557.39
2018-03-03T06:47:58.384Z,100553.06
2018-03-03T06:50:26.824Z,100555.22
2018-03-03T06:52:55.277Z,100553.45
2018-03-03T06:55:23.758Z,100557.36
2018-03-03T06:57:52.294Z,100554.78
2018-03-03T07:00:20.775Z,100549.13
2018-03-03T07:02:49.358Z,100553.47
2018-03-03T07:05:17.943Z,100559.50
2018-03-03T07:07:46.476Z,100549.16
2018-03-03T07:10:15.971Z,100541.36
2018-03-03T07:12:44.613Z,100550.42
2018-03-03T07:15:15.746Z,100549.13
2018-03-03T07:17:44.621Z,100552.99
2018-03-03T07:20:13.182Z,100549.55
2018-03-03T07:22:41.693Z,100547.80
2018-03-03T07:25:10.305Z,100551.72
2018-03-03T07:27:38.787Z,100552.13
2018-03-03T07:30:07.406Z,100549.97
2018-03-03T07:32:37.717Z,100548.20
2018-03-03T07:35:06.245Z,100546.91
2018-03-03T07:37:51.666Z,100549.88
2018-03-03T07:40:20.196Z,100538.64
2018-03-03T07:42:48.713Z,100538.63
2018-03-03T07:45:17.303Z,100544.20
2018-03-03T07:47:45.980Z,100546.34
2018-03-03T07:50:14.506Z,100541.13
2018-03-03T07:52:43.112Z,100545.33
2018-03-03T07:55:12.621Z,100540.66
2018-03-03T07:57:41.129Z,100546.64
2018-03-03T08:00:09.991Z,100534.42
2018-03-03T08:02:38.596Z,100534.53
2018-03-03T08:05:07.149Z,100532.64
2018-03-03T08:07:36.551Z,100536.05
2018-03-03T08:10:05.055Z,100532.87
2018-03-03T08:12:33.724Z,100530.73
2018-03-03T08:15:03.048Z,100522.39
2018-03-03T08:17:31.601Z,100525.83
2018-03-03T08:20:00.102Z,100532.19
2018-03-03T08:22:28.671Z,100534.79
2018-03-03T08:24:57.243Z,100538.20
2018-03-03T08:27:25.684Z,100528.70
2018-03-03T08:29:54.604Z,100529.05
2018-03-03T08:32:26.688Z,100526.39
2018-03-03T08:34:55.799Z,100530.23
2018-03-03T08:37:25.360Z,100521.52
2018-03-03T08:39:56.123Z,100526.22
2018-03-03T08:42:24.617Z,100535.92
2018-03-03T08:44:54.209Z,100530.55
2018-03-03T08:47:22.893Z,100525.86
2018-03-03T08:49:51.350Z,100528.19
2018-03-03T08:52:19.809Z,100531.61
2018-03-03T08:54:48.756Z,100526.14
2018-03-03T08:59:53.521Z,100518.14
2018-03-03T09:02:21.978Z,100517.38
2018-03-03T09:04:51.798Z,100515.00
2018-03-03T09:07:20.353Z,100514.25
2018-03-03T09:09:48.870Z,100507.56
2018-03-03T09:12:17.319Z,100517.38
2018-03-03T09:14:45.807Z,100511.39
2018-03-03T09:17:14.285Z,100508.23
2018-03-03T09:19:42.796Z,100506.09
2018-03-03T09:22:11.994Z,100514.39
2018-03-03T09:24:40.535Z,100512.13
2018-03-03T09:27:09.164Z,100514.36
2018-03-03T09:29:38.572Z,100519.77
2018-03-03T09:32:07.154Z,100522.53
2018-03-03T09:34:35.743Z,100520.91
2018-03-03T09:37:04.937Z,100525.91
2018-03-03T09:39:33.443Z,100521.20
2018-03-03T09:42:02.064Z,100528.95
2018-03-03T09:44:31.436Z,100523.09
2018-03-03T09:46:59.934Z,100523.79
2018-03-03T09:49:28.401Z,100519.09
2018-03-03T09:51:57.057Z,100515.69
2018-03-03T09:54:25.622Z,100517.22
2018-03-03T09:56:54.080Z,100519.72
2018-03-03T09:59:23.076Z,100510.58
2018-03-03T10:01:58.934Z,100510.43
2018-03-03T10:04:20.241Z,100503.70
2018-03-03T10:06:49.473Z,100506.66
2018-03-03T10:09:18.161Z,100502.92
2018-03-03T10:11:46.877Z,100504.59
2018-03-03T10:14:17.525Z,100502.58
2018-03-03T10:16:46.024Z,100502.93
2018-03-03T10:19:14.549Z,100508.20
2018-03-03T10:21:43.201Z,100504.84
2018-03-03T10:24:11.881Z,100502.57
2018-03-03T10:26:40.445Z,100498.45
2018-03-03T10:29:09.102Z,100497.13
2018-03-03T10:31:37.946Z,100491.77
2018-03-03T10:34:06.576Z,100496.34
2018-03-03T10:36:36.256Z,100493.05
2018-03-03T10:39:05.286Z,100489.06
2018-03-03T10:41:34.681Z,100503.52
2018-03-03T10:44:03.276Z,100493.81
2018-03-03T10:46:31.766Z,100491.47
2018-03-03T10:49:00.332Z,100495.98
2018-03-03T10:51:29.376Z,100494.81
2018-03-03T10:53:57.939Z,100494.94
2018-03-03T10:56:26.383Z,100496.64
2018-03-03T10:58:54.864Z,100480.15
2018-03-03T11:01:23.373Z,100494.20
2018-03-03T11:03:51.996Z,100487.24
2018-03-03T11:06:21.113Z,100485.86
2018-03-03T11:08:49.604Z,100487.34
2018-03-03T11:11:18.048Z,100481.72
2018-03-03T11:13:46.775Z,100481.66
2018-03-03T11:16:20.885Z,100467.23
2018-03-03T11:18:50.480Z,100467.43
2018-03-03T11:21:19.509Z,100473.22
2018-03-03T11:23:47.989Z,100475.31
2018-03-03T11:26:19.644Z,100485.44
2018-03-03T11:28:48.315Z,100470.76
2018-03-03T11:31:16.798Z,100471.70
2018-03-03T11:33:47.951Z,100461.52
2018-03-03T11:36:19.502Z,100465.62
2018-03-03T11:38:48.897Z,100475.77
2018-03-03T11:41:18.840Z,100461.05
2018-03-03T11:43:51.326Z,100464.87
2018-03-03T11:46:19.838Z,100458.83
2018-03-03T11:48:48.318Z,100456.44
2018-03-03T11:51:16.974Z,100466.01
2018-03-03T11:53:45.423Z,100462.38
2018-03-03T11:56:13.916Z,100455.38
2018-03-03T11:58:42.884Z,100456.10
2018-03-03T12:01:11.723Z,100453.62
2018-03-03T12:03:40.946Z,100451.30
2018-03-03T12:06:09.932Z,100453.45
2018-03-03T12:08:40.995Z,100453.36
2018-03-03T12:11:09.845Z,100451.98
2018-03-03T12:13:38.469Z,100452.62
2018-03-03T12:16:07.064Z,100448.89
2018-03-03T12:18:35.584Z,100442.66
2018-03-03T12:21:04.133Z,100450.48
2018-03-03T12:23:33.706Z,100447.70
2018-03-03T12:26:02.183Z,100440.87
2018-03-03T12:28:45.295Z,100443.30
2018-03-03T12:31:13.852Z,100451.33
2018-03-03T12:33:42.382Z,100460.62
2018-03-03T12:36:12.052Z,100440.58
2018-03-03T12:38:40.657Z,100445.48
2018-03-03T12:41:09.324Z,100436.28
2018-03-03T12:43:38.416Z,100440.45
2018-03-03T12:46:09.636Z,100436.09
2018-03-03T12:48:41.801Z,100436.98
2018-03-03T12:51:11.333Z,100427.34
2018-03-03T12:53:39.800Z,100434.23
2018-03-03T12:56:08.517Z,100446.38
2018-03-03T12:58:37.213Z,100443.16
2018-03-03T13:01:06.106Z,100435.14
2018-03-03T13:03:39.077Z,100438.47
2018-03-03T13:06:07.676Z,100439.34
2018-03-03T13:08:37.478Z,100443.55
2018-03-03T13:11:06.850Z,100439.60
2018-03-03T13:13:35.871Z,100452.03
2018-03-03T13:16:04.556Z,100454.84
2018-03-03T13:18:33.578Z,100448.28
2018-03-03T13:21:02.238Z,100448.66
2018-03-03T13:23:30.823Z,100446.05
2018-03-03T13:26:00.724Z,100447.42
2018-03-03T13:28:29.533Z,100435.91
2018-03-03T13:30:57.998Z,100446.81
2018-03-03T13:33:27.131Z,100434.13
2018-03-03T13:35:55.577Z,100452.08
2018-03-03T13:38:24.122Z,100450.77
2018-03-03T13:40:52.746Z,100437.80
2018-03-03T13:43:21.284Z,100449.98
2018-03-03T13:45:49.707Z,100443.34
2018-03-03T13:48:19.132Z,100439.86
2018-03-03T13:50:47.588Z,100434.45
2018-03-03T13:53:16.164Z,100439.14
2018-03-03T13:55:44.930Z,100429.27
2018-03-03T13:58:13.845Z,100426.34
2018-03-03T14:00:42.430Z,100424.27
2018-03-03T14:03:11.156Z,100431.44
2018-03-03T14:05:39.755Z,100431.26
2018-03-03T14:08:08.487Z,100430.62
2018-03-03T14:10:37.516Z,100424.93
2018-03-03T14:13:06.293Z,100420.81
2018-03-03T14:15:34.851Z,100425.30
2018-03-03T14:18:04.112Z,100420.69
2018-03-03T14:20:32.725Z,100422.25
2018-03-03T14:23:01.294Z,100413.61
2018-03-03T14:25:29.910Z,100414.68
2018-03-03T14:27:58.482Z,100414.87
2018-03-03T14:30:27.151Z,100416.84
2018-03-03T14:32:56.472Z,100416.60
2018-03-03T14:35:25.849Z,100408.55
2018-03-03T14:37:54.367Z,100404.97
2018-03-03T14:40:22.908Z,100404.69
2018-03-03T14:42:51.396Z,100409.16
2018-03-03T14:45:19.823Z,100398.41
2018-03-03T14:47:49.298Z,100404.22
2018-03-03T14:50:17.849Z,100400.23
2018-03-03T14:52:46.450Z,100407.16
2018-03-03T14:55:15.126Z,100403.20
2018-03-03T14:57:43.831Z,100398.13
2018-03-03T15:00:12.484Z,100397.14
2018-03-03T15:02:41.015Z,100400.45
2018-03-03T15:05:09.485Z,100389.64
2018-03-03T15:07:38.097Z,100386.53
2018-03-03T15:10:06.724Z,100391.73
2018-03-03T15:12:36.228Z,100393.13
2018-03-03T15:15:06.091Z,100396.07
2018-03-03T15:17:34.807Z,100389.22
2018-03-03T15:20:03.313Z,100385.50
2018-03-03T15:22:32.118Z,100386.09
2018-03-03T15:25:01.401Z,100392.39
2018-03-03T15:27:29.875Z,100394.73
2018-03-03T15:30:10.357Z,100395.58
2018-03-03T15:32:41.277Z,100392.55
2018-03-03T15:35:09.844Z,100390.94
2018-03-03T15:37:38.328Z,100397.84
2018-03-03T15:40:06.755Z,100395.19
2018-03-03T15:42:35.328Z,100388.59
2018-03-03T15:45:03.899Z,100386.10
2018-03-03T15:47:32.408Z,100381.33
2018-03-03T15:50:02.119Z,100384.64
2018-03-03T15:52:35.748Z,100393.41
2018-03-03T15:55:10.662Z,100389.69
2018-03-03T15:57:46.359Z,100385.50
2018-03-03T16:00:34.658Z,100393.56
2018-03-03T16:06:39.464Z,100380.02
2018-03-03T16:12:18.973Z,100380.31
2018-03-03T16:14:53.532Z,100376.22
2018-03-03T16:17:22.313Z,100377.10
2018-03-03T16:19:50.753Z,100377.65
2018-03-03T16:22:19.254Z,100381.96
2018-03-03T16:24:47.805Z,100381.16
2018-03-03T16:27:16.287Z,100383.94
2018-03-03T16:29:44.889Z,100382.57
2018-03-03T16:32:13.599Z,100376.94
2018-03-03T16:34:42.114Z,100369.32
2018-03-03T16:37:10.819Z,100371.27
2018-03-03T16:39:39.349Z,100376.51
2018-03-03T16:42:07.870Z,100368.46
2018-03-03T16:44:36.373Z,100380.45
2018-03-03T16:47:04.895Z,100370.14
2018-03-03T16:49:33.414Z,100377.82
2018-03-03T16:52:05.267Z,100378.58
2018-03-03T16:54:34.332Z,100375.30
2018-03-03T16:57:03.684Z,100374.43
2018-03-03T16:59:32.360Z,100379.97
2018-03-03T17:02:01.981Z,100376.22
2018-03-03T17:04:30.453Z,100386.36
2018-03-03T17:06:58.980Z,100373.53
2018-03-03T17:09:27.665Z,100372.97
2018-03-03T17:11:56.274Z,100368.02
2018-03-03T17:14:24.728Z,100371.72
2018-03-03T17:16:53.462Z,100374.84
2018-03-03T17:19:21.932Z,100378.58
2018-03-03T17:21:50.385Z,100379.78
2018-03-03T17:24:20.699Z,100381.23
2018-03-03T17:26:51.896Z,100379.27
2018-03-03T17:29:20.714Z,100387.88
2018-03-03T17:31:52.604Z,100387.88
2018-03-03T17:34:22.494Z,100387.73
2018-03-03T17:36:51.239Z,100384.75
2018-03-03T17:39:25.540Z,100390.97
2018-03-03T17:41:56.572Z,100390.66
2018-03-03T17:44:26.270Z,100385.55
2018-03-03T17:46:55.046Z,100392.02
2018-03-03T17:49:24.126Z,100384.28
2018-03-03T17:51:54.335Z,100383.73
2018-03-03T17:54:25.592Z,100388.27
2018-03-03T17:56:58.709Z,100389.20
2018-03-03T17:59:27.880Z,100387.02
2018-03-03T18:01:56.530Z,100397.20
2018-03-03T18:04:28.984Z,100395.89
2018-03-03T18:06:59.536Z,100389.27
2018-03-03T18:12:13.248Z,100402.69
2018-03-03T18:14:45.733Z,100401.97
2018-03-03T18:17:20.864Z,100408.78
2018-03-03T18:19:50.594Z,100402.79
2018-03-03T18:22:21.393Z,100407.28
2018-03-03T18:24:50.084Z,100402.44
2018-03-03T18:27:40.408Z,100395.06
2018-03-03T18:30:23.817Z,100400.18
2018-03-03T18:33:06.466Z,100387.92
2018-03-03T18:35:39.080Z,100394.64
2018-03-03T18:38:08.329Z,100393.05
2018-03-03T18:40:37.288Z,100394.78
2018-03-03T18:43:06.865Z,100393.69
2018-03-03T18:45:35.866Z,100399.70
2018-03-03T18:48:05.491Z,100396.32
2018-03-03T18:50:34.060Z,100406.23
2018-03-03T18:53:02.659Z,100408.55
2018-03-03T18:55:31.326Z,100402.42
2018-03-03T18:57:59.832Z,100408.06
2018-03-03T19:00:28.388Z,100402.20
2018-03-03T19:02:56.899Z,100407.77
2018-03-03T19:05:25.345Z,100408.91
2018-03-03T19:07:54.247Z,100421.88
2018-03-03T19:10:23.424Z,100417.33
2018-03-03T19:12:52.693Z,100420.59
2018-03-03T19:15:21.206Z,100421.83
2018-03-03T19:17:49.683Z,100426.37
2018-03-03T19:20:18.146Z,100425.49
2018-03-03T19:22:47.664Z,100434.62
2018-03-03T19:25:16.507Z,100426.33
2018-03-03T19:27:44.960Z,100419.98
2018-03-03T19:30:13.797Z,100422.48
2018-03-03T19:32:42.977Z,100425.29
2018-03-03T19:35:11.731Z,100432.64
2018-03-03T19:37:41.147Z,100439.44
2018-03-03T19:40:11.773Z,100437.11
2018-03-03T19:42:42.404Z,100449.59
2018-03-03T19:45:10.983Z,100454.91
2018-03-03T19:47:39.466Z,100459.66
2018-03-03T19:50:20.041Z,100453.08
2018-03-03T19:52:50.323Z,100455.80
2018-03-03T19:55:22.062Z,100453.12
2018-03-03T19:57:58.109Z,100453.19
2018-03-03T20:00:29.809Z,100461.23
2018-03-03T20:02:58.751Z,100467.77
2018-03-03T20:05:27.637Z,100459.45
2018-03-03T20:07:56.857Z,100468.69
2018-03-03T20:10:25.724Z,100460.36
2018-03-03T20:12:55.256Z,100469.30
2018-03-03T20:15:25.202Z,100475.66
2018-03-03T20:17:54.367Z,100476.67
2018-03-03T20:20:23.738Z,100476.14
2018-03-03T20:22:53.033Z,100477.02
2018-03-03T20:25:21.783Z,100479.73
2018-03-03T20:27:50.580Z,100479.30
2018-03-03T20:30:19.172Z,100482.38
2018-03-03T20:32:47.808Z,100472.89
2018-03-03T20:35:16.960Z,100472.38
2018-03-03T20:40:38.866Z,100471.98
2018-03-03T20:43:08.733Z,100468.34
2018-03-03T20:45:38.562Z,100475.15
2018-03-03T20:48:09.245Z,100471.27
2018-03-03T20:50:47.531Z,100473.11
2018-03-03T20:53:17.444Z,100477.11
2018-03-03T20:55:46.033Z,100475.75
2018-03-03T20:58:14.609Z,100469.58
2018-03-03T21:00:43.150Z,100469.56
2018-03-03T21:03:11.678Z,100469.67
2018-03-03T21:05:40.941Z,100468.25
2018-03-03T21:08:09.533Z,100463.83
2018-03-03T21:10:38.246Z,100467.59
2018-03-03T21:13:06.987Z,100467.45
2018-03-03T21:15:37.109Z,100465.34
2018-03-03T21:18:10.580Z,100462.84
2018-03-03T21:20:41.308Z,100468.98
2018-03-03T21:23:11.571Z,100465.08
2018-03-03T21:25:41.756Z,100462.47
2018-03-03T21:28:11.513Z,100462.14
2018-03-03T21:30:40.327Z,100467.75
2018-03-03T21:33:08.896Z,100465.48
2018-03-03T21:35:50.920Z,100466.44
2018-03-03T21:38:22.385Z,100471.33
2018-03-03T21:40:51.875Z,100475.55
2018-03-03T21:49:27.780Z,100480.02
2018-03-03T21:51:59.072Z,100482.72
2018-03-03T21:54:28.949Z,100475.14
2018-03-03T21:56:59.750Z,100482.66
2018-03-03T21:59:29.360Z,100480.27
2018-03-03T22:02:13.316Z,100476.94
2018-03-03T22:10:47.560Z,100475.02
2018-03-03T22:13:21.314Z,100476.38
2018-03-03T22:15:50.493Z,100467.13
2018-03-03T22:18:19.075Z,100465.45
2018-03-03T22:21:02.750Z,100471.55
2018-03-03T22:23:42.622Z,100479.34
2018-03-03T22:26:28.379Z,100468.63
2018-03-03T22:29:11.850Z,100468.16
2018-03-03T22:31:42.918Z,100462.86
2018-03-03T22:34:13.598Z,100462.44
2018-03-03T22:36:55.165Z,100464.13
2018-03-03T22:39:41.451Z,100462.95
2018-03-03T22:42:16.347Z,100465.91
2018-03-03T22:44:45.202Z,100456.00
2018-03-03T22:47:15.645Z,100464.84
2018-03-03T22:49:44.203Z,100463.38
2018-03-03T22:52:12.701Z,100466.42
2018-03-03T22:54:43.848Z,100459.06
2018-03-03T22:57:12.848Z,100459.03
2018-03-03T22:59:41.355Z,100460.36
2018-03-03T23:02:09.965Z,100454.23
2018-03-03T23:04:39.784Z,100462.19
2018-03-03T23:07:09.384Z,100461.66
2018-03-03T23:09:38.627Z,100464.45
2018-03-03T23:12:09.627Z,100465.28
2018-03-03T23:14:38.289Z,100454.69
2018-03-03T23:17:06.803Z,100458.00
2018-03-03T23:19:35.390Z,100456.09
2018-03-03T23:22:03.999Z,100456.09
2018-03-03T23:24:32.663Z,100457.05
2018-03-03T23:27:01.713Z,100456.48
2018-03-03T23:29:31.179Z,100448.17
2018-03-03T23:31:59.640Z,100454.27
2018-03-03T23:34:28.281Z,100456.65
2018-03-03T23:36:56.770Z,100450.95
2018-03-03T23:39:25.720Z,100464.40
2018-03-03T23:41:54.282Z,100465.42
2018-03-03T23:44:22.825Z,100455.73
2018-03-03T23:46:51.277Z,100455.15
2018-03-03T23:49:19.820Z,100457.52
2018-03-03T23:51:48.278Z,100463.65
2018-03-03T23:54:16.795Z,100458.03
2018-03-03T23:56:45.739Z,100461.50
2018-03-03T23:59:14.241Z,100454.27
